Terminal Aerodrome Forecast
Issued by NWS

Home | Current Version | Previous Version | Text Only | Print | Product List | Glossary On
Versions: 1 2 3 4 5 6 7 8 9 10 11 12 13 14
000
FTUS45 KABQ 271100
TAFFMN
TAF
KFMN 271122Z 2712/2812 09006KT P6SM BKN250
     FM272000 26006KT P6SM BKN250
     FM280100 33006KT P6SM BKN200
     FM280500 08007KT P6SM BKN200=

USA.gov is the U.S. government's official web portal to all federal, state and local government web resources and services.